sensor_id;sensor_type;location;lat;lon;timestamp;P1;durP1;ratioP1;P2;durP2;ratioP2
44824;SDS011;30542;47.928;2.138;2023-03-31T00:04:36;3.47;;;1.55;;
44824;SDS011;30542;47.928;2.138;2023-03-31T00:09:37;4.45;;;2.10;;
44824;SDS011;30542;47.928;2.138;2023-03-31T00:14:37;3.47;;;1.67;;
44824;SDS011;30542;47.928;2.138;2023-03-31T00:19:38;3.27;;;1.60;;
44824;SDS011;30542;47.928;2.138;2023-03-31T00:24:40;3.58;;;1.38;;
44824;SDS011;30542;47.928;2.138;2023-03-31T00:29:41;3.23;;;1.23;;
44824;SDS011;30542;47.928;2.138;2023-03-31T00:34:42;3.65;;;1.13;;
44824;SDS011;30542;47.928;2.138;2023-03-31T00:39:43;2.50;;;1.25;;
44824;SDS011;30542;47.928;2.138;2023-03-31T00:50:16;3.90;;;1.10;;
44824;SDS011;30542;47.928;2.138;2023-03-31T00:55:30;3.47;;;0.90;;
44824;SDS011;30542;47.928;2.138;2023-03-31T01:00:35;3.78;;;1.02;;
44824;SDS011;30542;47.928;2.138;2023-03-31T01:05:38;2.70;;;1.13;;
44824;SDS011;30542;47.928;2.138;2023-03-31T01:10:44;3.08;;;1.27;;
44824;SDS011;30542;47.928;2.138;2023-03-31T01:15:47;2.85;;;0.95;;
44824;SDS011;30542;47.928;2.138;2023-03-31T01:42:39;5.18;;;1.30;;
44824;SDS011;30542;47.928;2.138;2023-03-31T01:58:20;3.33;;;1.17;;
44824;SDS011;30542;47.928;2.138;2023-03-31T02:03:27;3.22;;;0.98;;
44824;SDS011;30542;47.928;2.138;2023-03-31T02:08:33;2.35;;;0.80;;
44824;SDS011;30542;47.928;2.138;2023-03-31T02:13:39;3.53;;;0.80;;
44824;SDS011;30542;47.928;2.138;2023-03-31T02:18:43;3.42;;;1.10;;
44824;SDS011;30542;47.928;2.138;2023-03-31T02:23:47;2.30;;;0.70;;
44824;SDS011;30542;47.928;2.138;2023-03-31T02:28:50;1.90;;;0.85;;
44824;SDS011;30542;47.928;2.138;2023-03-31T02:33:51;1.50;;;0.60;;
44824;SDS011;30542;47.928;2.138;2023-03-31T02:38:59;1.98;;;0.70;;
44824;SDS011;30542;47.928;2.138;2023-03-31T02:44:05;1.92;;;0.80;;
44824;SDS011;30542;47.928;2.138;2023-03-31T02:49:06;1.92;;;0.70;;
44824;SDS011;30542;47.928;2.138;2023-03-31T02:59:47;1.15;;;0.70;;
44824;SDS011;30542;47.928;2.138;2023-03-31T03:10:43;2.65;;;0.70;;
44824;SDS011;30542;47.928;2.138;2023-03-31T03:15:46;2.53;;;0.60;;
44824;SDS011;30542;47.928;2.138;2023-03-31T03:20:51;2.50;;;0.90;;
44824;SDS011;30542;47.928;2.138;2023-03-31T03:25:52;2.67;;;0.70;;
44824;SDS011;30542;47.928;2.138;2023-03-31T03:30:53;2.33;;;0.70;;
44824;SDS011;30542;47.928;2.138;2023-03-31T03:35:53;2.00;;;0.60;;
44824;SDS011;30542;47.928;2.138;2023-03-31T03:40:54;1.08;;;0.50;;
44824;SDS011;30542;47.928;2.138;2023-03-31T03:45:54;1.40;;;0.80;;
44824;SDS011;30542;47.928;2.138;2023-03-31T03:50:55;1.55;;;0.70;;
44824;SDS011;30542;47.928;2.138;2023-03-31T03:55:58;1.92;;;0.80;;
44824;SDS011;30542;47.928;2.138;2023-03-31T04:01:00;3.67;;;1.02;;
44824;SDS011;30542;47.928;2.138;2023-03-31T04:06:01;2.05;;;0.60;;
44824;SDS011;30542;47.928;2.138;2023-03-31T04:11:01;2.03;;;0.60;;
44824;SDS011;30542;47.928;2.138;2023-03-31T04:16:03;1.55;;;0.60;;
44824;SDS011;30542;47.928;2.138;2023-03-31T04:21:03;2.97;;;0.80;;
44824;SDS011;30542;47.928;2.138;2023-03-31T04:26:04;1.97;;;0.57;;
44824;SDS011;30542;47.928;2.138;2023-03-31T04:31:08;4.38;;;1.27;;
44824;SDS011;30542;47.928;2.138;2023-03-31T04:36:09;7.75;;;1.83;;
44824;SDS011;30542;47.928;2.138;2023-03-31T04:41:19;8.30;;;2.17;;
44824;SDS011;30542;47.928;2.138;2023-03-31T04:46:20;8.88;;;1.80;;
44824;SDS011;30542;47.928;2.138;2023-03-31T04:51:21;5.32;;;1.80;;
44824;SDS011;30542;47.928;2.138;2023-03-31T04:56:21;5.77;;;1.50;;
44824;SDS011;30542;47.928;2.138;2023-03-31T05:01:22;9.00;;;2.07;;
44824;SDS011;30542;47.928;2.138;2023-03-31T05:06:22;110.07;;;24.20;;
44824;SDS011;30542;47.928;2.138;2023-03-31T05:11:22;117.30;;;30.40;;
44824;SDS011;30542;47.928;2.138;2023-03-31T05:16:22;92.83;;;24.97;;
44824;SDS011;30542;47.928;2.138;2023-03-31T05:21:23;82.13;;;21.93;;
44824;SDS011;30542;47.928;2.138;2023-03-31T05:26:25;71.53;;;19.75;;
44824;SDS011;30542;47.928;2.138;2023-03-31T05:31:26;48.20;;;14.00;;
44824;SDS011;30542;47.928;2.138;2023-03-31T05:36:27;35.47;;;10.32;;
44824;SDS011;30542;47.928;2.138;2023-03-31T05:41:27;32.13;;;10.27;;
44824;SDS011;30542;47.928;2.138;2023-03-31T05:46:27;31.08;;;8.90;;
44824;SDS011;30542;47.928;2.138;2023-03-31T05:51:28;25.38;;;8.18;;
44824;SDS011;30542;47.928;2.138;2023-03-31T05:56:28;23.35;;;7.80;;
44824;SDS011;30542;47.928;2.138;2023-03-31T06:01:28;22.13;;;7.13;;
44824;SDS011;30542;47.928;2.138;2023-03-31T06:06:29;18.60;;;6.33;;
44824;SDS011;30542;47.928;2.138;2023-03-31T06:11:29;16.13;;;5.47;;
44824;SDS011;30542;47.928;2.138;2023-03-31T06:16:30;15.48;;;5.07;;
44824;SDS011;30542;47.928;2.138;2023-03-31T06:21:30;14.80;;;4.85;;
44824;SDS011;30542;47.928;2.138;2023-03-31T06:26:31;16.35;;;4.95;;
44824;SDS011;30542;47.928;2.138;2023-03-31T06:31:32;14.63;;;4.32;;
44824;SDS011;30542;47.928;2.138;2023-03-31T06:36:32;15.87;;;4.63;;
44824;SDS011;30542;47.928;2.138;2023-03-31T06:41:32;18.63;;;5.63;;
44824;SDS011;30542;47.928;2.138;2023-03-31T06:46:33;17.37;;;5.30;;
44824;SDS011;30542;47.928;2.138;2023-03-31T06:51:33;19.93;;;5.90;;
44824;SDS011;30542;47.928;2.138;2023-03-31T06:56:33;18.33;;;5.50;;
44824;SDS011;30542;47.928;2.138;2023-03-31T07:01:34;22.70;;;5.50;;
44824;SDS011;30542;47.928;2.138;2023-03-31T07:06:36;15.95;;;5.43;;
44824;SDS011;30542;47.928;2.138;2023-03-31T07:11:36;17.20;;;5.50;;
44824;SDS011;30542;47.928;2.138;2023-03-31T07:16:37;14.03;;;5.17;;
44824;SDS011;30542;47.928;2.138;2023-03-31T07:21:37;13.65;;;4.90;;
44824;SDS011;30542;47.928;2.138;2023-03-31T07:26:37;14.93;;;5.60;;
44824;SDS011;30542;47.928;2.138;2023-03-31T07:31:37;14.60;;;4.82;;
44824;SDS011;30542;47.928;2.138;2023-03-31T07:36:38;14.57;;;4.55;;
44824;SDS011;30542;47.928;2.138;2023-03-31T07:41:38;11.93;;;4.70;;
44824;SDS011;30542;47.928;2.138;2023-03-31T07:46:38;12.60;;;4.20;;
44824;SDS011;30542;47.928;2.138;2023-03-31T07:51:39;12.60;;;4.18;;
44824;SDS011;30542;47.928;2.138;2023-03-31T07:56:39;10.07;;;3.88;;
44824;SDS011;30542;47.928;2.138;2023-03-31T08:01:40;9.48;;;3.97;;
44824;SDS011;30542;47.928;2.138;2023-03-31T08:06:40;10.30;;;3.33;;
44824;SDS011;30542;47.928;2.138;2023-03-31T08:11:41;8.67;;;3.70;;
44824;SDS011;30542;47.928;2.138;2023-03-31T08:16:41;9.30;;;3.23;;
44824;SDS011;30542;47.928;2.138;2023-03-31T08:21:41;10.90;;;3.42;;
44824;SDS011;30542;47.928;2.138;2023-03-31T08:26:42;10.00;;;3.13;;
44824;SDS011;30542;47.928;2.138;2023-03-31T08:31:42;10.00;;;3.47;;
44824;SDS011;30542;47.928;2.138;2023-03-31T08:36:43;7.85;;;2.90;;
44824;SDS011;30542;47.928;2.138;2023-03-31T08:41:46;9.93;;;3.13;;
44824;SDS011;30542;47.928;2.138;2023-03-31T08:46:59;7.13;;;2.63;;
44824;SDS011;30542;47.928;2.138;2023-03-31T08:52:03;8.05;;;2.67;;
44824;SDS011;30542;47.928;2.138;2023-03-31T08:57:11;9.90;;;3.40;;
44824;SDS011;30542;47.928;2.138;2023-03-31T09:18:19;7.32;;;2.78;;
44824;SDS011;30542;47.928;2.138;2023-03-31T09:28:49;10.07;;;3.13;;
44824;SDS011;30542;47.928;2.138;2023-03-31T09:33:52;5.50;;;2.20;;
44824;SDS011;30542;47.928;2.138;2023-03-31T09:38:58;7.18;;;2.13;;
44824;SDS011;30542;47.928;2.138;2023-03-31T09:43:58;6.57;;;2.37;;
44824;SDS011;30542;47.928;2.138;2023-03-31T09:49:01;8.03;;;2.00;;
44824;SDS011;30542;47.928;2.138;2023-03-31T09:54:26;7.70;;;2.83;;
44824;SDS011;30542;47.928;2.138;2023-03-31T09:59:33;6.35;;;2.08;;
44824;SDS011;30542;47.928;2.138;2023-03-31T10:04:34;7.22;;;2.10;;
44824;SDS011;30542;47.928;2.138;2023-03-31T10:09:45;3.85;;;1.55;;
44824;SDS011;30542;47.928;2.138;2023-03-31T10:14:47;6.33;;;1.83;;
44824;SDS011;30542;47.928;2.138;2023-03-31T10:19:50;6.22;;;1.73;;
44824;SDS011;30542;47.928;2.138;2023-03-31T10:25:09;7.60;;;1.83;;
44824;SDS011;30542;47.928;2.138;2023-03-31T10:30:22;5.57;;;1.88;;
44824;SDS011;30542;47.928;2.138;2023-03-31T10:35:26;6.40;;;1.88;;
44824;SDS011;30542;47.928;2.138;2023-03-31T10:40:31;7.10;;;1.77;;
44824;SDS011;30542;47.928;2.138;2023-03-31T10:45:37;4.57;;;1.52;;
44824;SDS011;30542;47.928;2.138;2023-03-31T10:50:42;4.82;;;1.52;;
44824;SDS011;30542;47.928;2.138;2023-03-31T10:55:55;5.00;;;2.00;;
44824;SDS011;30542;47.928;2.138;2023-03-31T11:16:40;5.10;;;1.70;;
44824;SDS011;30542;47.928;2.138;2023-03-31T11:37:38;7.30;;;2.30;;
44824;SDS011;30542;47.928;2.138;2023-03-31T11:48:36;4.97;;;1.70;;
44824;SDS011;30542;47.928;2.138;2023-03-31T11:53:41;5.10;;;1.63;;
44824;SDS011;30542;47.928;2.138;2023-03-31T11:58:46;4.70;;;1.88;;
44824;SDS011;30542;47.928;2.138;2023-03-31T12:14:07;5.43;;;1.60;;
44824;SDS011;30542;47.928;2.138;2023-03-31T12:24:26;4.82;;;1.67;;
44824;SDS011;30542;47.928;2.138;2023-03-31T12:29:31;5.72;;;1.38;;
44824;SDS011;30542;47.928;2.138;2023-03-31T12:34:36;4.90;;;1.50;;
44824;SDS011;30542;47.928;2.138;2023-03-31T12:50:14;3.55;;;1.38;;
44824;SDS011;30542;47.928;2.138;2023-03-31T12:55:37;4.00;;;1.08;;
44824;SDS011;30542;47.928;2.138;2023-03-31T13:01:00;4.47;;;1.20;;
44824;SDS011;30542;47.928;2.138;2023-03-31T13:06:04;4.22;;;1.10;;
44824;SDS011;30542;47.928;2.138;2023-03-31T13:11:04;4.95;;;1.20;;
44824;SDS011;30542;47.928;2.138;2023-03-31T13:16:05;4.23;;;1.17;;
44824;SDS011;30542;47.928;2.138;2023-03-31T13:21:05;3.13;;;1.23;;
44824;SDS011;30542;47.928;2.138;2023-03-31T13:26:22;4.43;;;1.27;;
44824;SDS011;30542;47.928;2.138;2023-03-31T13:32:04;4.82;;;1.08;;
44824;SDS011;30542;47.928;2.138;2023-03-31T14:03:28;4.25;;;1.05;;
44824;SDS011;30542;47.928;2.138;2023-03-31T14:08:47;3.55;;;1.00;;
44824;SDS011;30542;47.928;2.138;2023-03-31T14:24:35;3.15;;;1.02;;
44824;SDS011;30542;47.928;2.138;2023-03-31T14:40:22;1.80;;;0.70;;
44824;SDS011;30542;47.928;2.138;2023-03-31T14:45:24;3.28;;;0.77;;
44824;SDS011;30542;47.928;2.138;2023-03-31T14:50:33;2.05;;;0.60;;
44824;SDS011;30542;47.928;2.138;2023-03-31T14:55:34;3.03;;;0.82;;
44824;SDS011;30542;47.928;2.138;2023-03-31T15:00:35;2.15;;;0.73;;
44824;SDS011;30542;47.928;2.138;2023-03-31T15:05:38;2.38;;;0.70;;
44824;SDS011;30542;47.928;2.138;2023-03-31T15:10:39;3.10;;;0.70;;
44824;SDS011;30542;47.928;2.138;2023-03-31T15:15:43;2.85;;;1.10;;
44824;SDS011;30542;47.928;2.138;2023-03-31T15:20:46;2.42;;;0.70;;
44824;SDS011;30542;47.928;2.138;2023-03-31T15:25:47;1.90;;;0.60;;
44824;SDS011;30542;47.928;2.138;2023-03-31T15:30:48;3.03;;;0.70;;
44824;SDS011;30542;47.928;2.138;2023-03-31T15:35:49;1.85;;;0.45;;
44824;SDS011;30542;47.928;2.138;2023-03-31T15:40:53;2.83;;;0.87;;
44824;SDS011;30542;47.928;2.138;2023-03-31T15:45:56;1.75;;;0.80;;
44824;SDS011;30542;47.928;2.138;2023-03-31T15:56:39;5.53;;;0.60;;
44824;SDS011;30542;47.928;2.138;2023-03-31T16:01:41;5.88;;;1.15;;
44824;SDS011;30542;47.928;2.138;2023-03-31T16:06:48;3.63;;;1.08;;
44824;SDS011;30542;47.928;2.138;2023-03-31T16:12:40;4.97;;;1.30;;
44824;SDS011;30542;47.928;2.138;2023-03-31T16:17:40;2.85;;;0.80;;
44824;SDS011;30542;47.928;2.138;2023-03-31T16:22:50;5.60;;;1.02;;
44824;SDS011;30542;47.928;2.138;2023-03-31T16:27:54;6.53;;;0.88;;
44824;SDS011;30542;47.928;2.138;2023-03-31T16:33:51;4.32;;;0.82;;
44824;SDS011;30542;47.928;2.138;2023-03-31T16:38:23;2.55;;;0.60;;
44824;SDS011;30542;47.928;2.138;2023-03-31T16:43:26;2.55;;;0.70;;
44824;SDS011;30542;47.928;2.138;2023-03-31T16:48:28;4.20;;;1.10;;
44824;SDS011;30542;47.928;2.138;2023-03-31T16:53:30;3.85;;;1.10;;
44824;SDS011;30542;47.928;2.138;2023-03-31T16:58:36;3.13;;;0.77;;
44824;SDS011;30542;47.928;2.138;2023-03-31T17:03:37;6.30;;;1.52;;
44824;SDS011;30542;47.928;2.138;2023-03-31T17:08:40;5.72;;;0.82;;
44824;SDS011;30542;47.928;2.138;2023-03-31T17:13:41;4.90;;;1.20;;
44824;SDS011;30542;47.928;2.138;2023-03-31T17:18:43;7.18;;;0.77;;
44824;SDS011;30542;47.928;2.138;2023-03-31T17:23:43;2.55;;;0.80;;
44824;SDS011;30542;47.928;2.138;2023-03-31T17:28:45;3.38;;;0.80;;
44824;SDS011;30542;47.928;2.138;2023-03-31T17:33:45;2.60;;;0.60;;
44824;SDS011;30542;47.928;2.138;2023-03-31T17:38:46;5.05;;;1.08;;
44824;SDS011;30542;47.928;2.138;2023-03-31T17:43:46;3.13;;;0.60;;
44824;SDS011;30542;47.928;2.138;2023-03-31T17:48:49;6.53;;;1.02;;
44824;SDS011;30542;47.928;2.138;2023-03-31T17:53:50;5.45;;;1.00;;
44824;SDS011;30542;47.928;2.138;2023-03-31T17:58:50;4.37;;;0.90;;
44824;SDS011;30542;47.928;2.138;2023-03-31T18:03:53;3.17;;;0.75;;
44824;SDS011;30542;47.928;2.138;2023-03-31T18:08:54;4.35;;;0.68;;
44824;SDS011;30542;47.928;2.138;2023-03-31T18:13:56;4.70;;;1.02;;
44824;SDS011;30542;47.928;2.138;2023-03-31T18:18:59;2.88;;;0.70;;
44824;SDS011;30542;47.928;2.138;2023-03-31T18:23:59;3.08;;;1.00;;
44824;SDS011;30542;47.928;2.138;2023-03-31T18:29:00;5.05;;;0.85;;
44824;SDS011;30542;47.928;2.138;2023-03-31T18:34:01;4.18;;;0.82;;
44824;SDS011;30542;47.928;2.138;2023-03-31T18:39:02;3.05;;;0.65;;
44824;SDS011;30542;47.928;2.138;2023-03-31T18:44:03;4.88;;;0.88;;
44824;SDS011;30542;47.928;2.138;2023-03-31T18:49:04;4.55;;;0.73;;
44824;SDS011;30542;47.928;2.138;2023-03-31T18:54:04;4.97;;;0.97;;
44824;SDS011;30542;47.928;2.138;2023-03-31T18:59:05;3.53;;;0.80;;
44824;SDS011;30542;47.928;2.138;2023-03-31T19:04:06;3.17;;;0.70;;
44824;SDS011;30542;47.928;2.138;2023-03-31T19:09:07;3.90;;;0.80;;
44824;SDS011;30542;47.928;2.138;2023-03-31T19:14:08;3.83;;;0.65;;
44824;SDS011;30542;47.928;2.138;2023-03-31T19:19:08;4.30;;;1.23;;
44824;SDS011;30542;47.928;2.138;2023-03-31T19:24:09;3.03;;;1.00;;
44824;SDS011;30542;47.928;2.138;2023-03-31T19:29:12;4.00;;;0.80;;
44824;SDS011;30542;47.928;2.138;2023-03-31T19:34:12;5.82;;;1.33;;
44824;SDS011;30542;47.928;2.138;2023-03-31T19:39:15;5.03;;;1.10;;
44824;SDS011;30542;47.928;2.138;2023-03-31T19:44:15;4.03;;;0.93;;
44824;SDS011;30542;47.928;2.138;2023-03-31T19:49:18;3.92;;;0.77;;
44824;SDS011;30542;47.928;2.138;2023-03-31T19:54:19;2.80;;;0.85;;
44824;SDS011;30542;47.928;2.138;2023-03-31T19:59:19;4.20;;;1.27;;
44824;SDS011;30542;47.928;2.138;2023-03-31T20:04:20;3.33;;;0.80;;
44824;SDS011;30542;47.928;2.138;2023-03-31T20:09:20;3.13;;;1.00;;
44824;SDS011;30542;47.928;2.138;2023-03-31T20:14:21;3.33;;;1.43;;
44824;SDS011;30542;47.928;2.138;2023-03-31T20:19:22;3.92;;;1.52;;
44824;SDS011;30542;47.928;2.138;2023-03-31T20:24:22;4.07;;;1.05;;
44824;SDS011;30542;47.928;2.138;2023-03-31T20:29:22;4.35;;;1.10;;
44824;SDS011;30542;47.928;2.138;2023-03-31T20:34:23;3.58;;;0.90;;
44824;SDS011;30542;47.928;2.138;2023-03-31T20:39:26;4.35;;;0.80;;
44824;SDS011;30542;47.928;2.138;2023-03-31T20:44:27;3.40;;;0.70;;
44824;SDS011;30542;47.928;2.138;2023-03-31T20:49:27;3.83;;;0.90;;
44824;SDS011;30542;47.928;2.138;2023-03-31T20:54:27;2.97;;;0.87;;
44824;SDS011;30542;47.928;2.138;2023-03-31T20:59:28;3.00;;;0.82;;
44824;SDS011;30542;47.928;2.138;2023-03-31T21:04:28;1.83;;;0.70;;
44824;SDS011;30542;47.928;2.138;2023-03-31T21:09:28;4.30;;;1.00;;
44824;SDS011;30542;47.928;2.138;2023-03-31T21:14:29;3.38;;;1.00;;
44824;SDS011;30542;47.928;2.138;2023-03-31T21:19:30;5.28;;;1.05;;
44824;SDS011;30542;47.928;2.138;2023-03-31T21:24:31;3.70;;;1.13;;
44824;SDS011;30542;47.928;2.138;2023-03-31T21:29:31;2.97;;;0.77;;
44824;SDS011;30542;47.928;2.138;2023-03-31T21:34:32;2.15;;;0.70;;
44824;SDS011;30542;47.928;2.138;2023-03-31T21:39:32;4.32;;;1.10;;
44824;SDS011;30542;47.928;2.138;2023-03-31T21:44:32;5.07;;;1.33;;
44824;SDS011;30542;47.928;2.138;2023-03-31T21:49:33;2.55;;;0.73;;
44824;SDS011;30542;47.928;2.138;2023-03-31T21:54:33;2.27;;;0.50;;
44824;SDS011;30542;47.928;2.138;2023-03-31T21:59:33;3.42;;;0.85;;
44824;SDS011;30542;47.928;2.138;2023-03-31T22:04:34;2.22;;;0.60;;
44824;SDS011;30542;47.928;2.138;2023-03-31T22:09:34;3.10;;;1.20;;
44824;SDS011;30542;47.928;2.138;2023-03-31T22:14:36;2.90;;;0.73;;
44824;SDS011;30542;47.928;2.138;2023-03-31T22:19:36;2.42;;;0.50;;
44824;SDS011;30542;47.928;2.138;2023-03-31T22:24:37;2.43;;;0.70;;
44824;SDS011;30542;47.928;2.138;2023-03-31T22:29:37;3.20;;;0.70;;
44824;SDS011;30542;47.928;2.138;2023-03-31T22:34:38;2.58;;;0.80;;
44824;SDS011;30542;47.928;2.138;2023-03-31T22:39:39;2.72;;;0.55;;
44824;SDS011;30542;47.928;2.138;2023-03-31T22:44:39;2.27;;;0.70;;
44824;SDS011;30542;47.928;2.138;2023-03-31T22:49:40;1.85;;;0.73;;
44824;SDS011;30542;47.928;2.138;2023-03-31T22:54:40;1.67;;;0.50;;
44824;SDS011;30542;47.928;2.138;2023-03-31T22:59:41;2.90;;;0.68;;
44824;SDS011;30542;47.928;2.138;2023-03-31T23:04:41;3.30;;;0.73;;
44824;SDS011;30542;47.928;2.138;2023-03-31T23:09:41;2.38;;;0.60;;
44824;SDS011;30542;47.928;2.138;2023-03-31T23:14:42;2.47;;;0.60;;
44824;SDS011;30542;47.928;2.138;2023-03-31T23:19:44;2.97;;;0.65;;
44824;SDS011;30542;47.928;2.138;2023-03-31T23:24:47;2.50;;;0.60;;
44824;SDS011;30542;47.928;2.138;2023-03-31T23:29:47;2.72;;;0.82;;
44824;SDS011;30542;47.928;2.138;2023-03-31T23:34:47;3.13;;;0.67;;
44824;SDS011;30542;47.928;2.138;2023-03-31T23:39:48;2.08;;;0.70;;
44824;SDS011;30542;47.928;2.138;2023-03-31T23:44:48;1.80;;;0.70;;
44824;SDS011;30542;47.928;2.138;2023-03-31T23:49:48;4.43;;;0.83;;
44824;SDS011;30542;47.928;2.138;2023-03-31T23:54:49;3.03;;;0.70;;
44824;SDS011;30542;47.928;2.138;2023-03-31T23:59:50;2.80;;;1.05;;
